aviador You're here:

CYAM Decoded Metar

SAULT SAINTE MARIE in ON, CANADA
Report Time2017-08-06 08:17:00
UTC Time2017-08-22 16:34:56
Flight Rules Old
Wind080° at 03 kt
W.Decomp.*RWY 12: 2.5 kt HW 1.6 kt LCW
RWY 04: 2.0 kt HW 2.2 kt RCW
W.Rank080° ranks 4
Current wind is below 080° avg. (6.0)
Visibility9999 m
Phenomena:Shallow Fog
Clouds:Few 000 Hf
Few 075 Hf
CeilingNone
Temp09°C (ISA -5)
Dew Point09°C (100% RH)
AAT7.7°C
QNH1015 hPa
Density Alt151 ft
Elevation630 ft
Report Wrong Elevation
Raw Report
SPECI CYAM 060817Z 08003KT 030V110 15SM MIFG FEW000 FEW075 09/09 A2996
RMK ST1AC1 ST TR AC TR SLP149=

Extra information for CYAM:More info

Metar Taf Metar & Taf Last 4 Metars F.Rules Stats Wind Profile Meteogram Temp Stats Airport Information Weather charts Add Link Nearby VenuesMetar ALERT Operation Metar Decoded Social comments